sensor_id;sensor_type;location;lat;lon;timestamp;pressure;altitude;pressure_sealevel;temperature;humidity
75497;BME280;64074;47.540;19.072;2022-10-19T00:01:57;101196.38;;;10.66;73.15
75497;BME280;64074;47.540;19.072;2022-10-19T00:05:17;101202.09;;;10.54;73.83
75497;BME280;64074;47.540;19.072;2022-10-19T00:08:41;101192.31;;;10.58;74.26
75497;BME280;64074;47.540;19.072;2022-10-19T00:12:01;101191.78;;;10.56;74.86
75497;BME280;64074;47.540;19.072;2022-10-19T00:15:21;101189.31;;;10.60;75.04
75497;BME280;64074;47.540;19.072;2022-10-19T00:18:42;101191.75;;;10.61;74.92
75497;BME280;64074;47.540;19.072;2022-10-19T00:22:02;101183.09;;;10.54;75.46
75497;BME280;64074;47.540;19.072;2022-10-19T00:25:24;101172.25;;;10.54;75.40
75497;BME280;64074;47.540;19.072;2022-10-19T00:28:55;101168.47;;;10.55;76.08
75497;BME280;64074;47.540;19.072;2022-10-19T00:32:08;101174.19;;;10.43;76.64
75497;BME280;64074;47.540;19.072;2022-10-19T00:35:28;101164.69;;;10.46;77.54
75497;BME280;64074;47.540;19.072;2022-10-19T00:38:56;101155.47;;;10.47;77.42
75497;BME280;64074;47.540;19.072;2022-10-19T00:42:10;101148.91;;;10.58;77.28
75497;BME280;64074;47.540;19.072;2022-10-19T00:45:18;101148.91;;;10.68;77.01
75497;BME280;64074;47.540;19.072;2022-10-19T00:48:27;101149.69;;;10.74;76.74
75497;BME280;64074;47.540;19.072;2022-10-19T00:51:44;101133.69;;;10.77;76.13
75497;BME280;64074;47.540;19.072;2022-10-19T00:55:06;101132.59;;;10.78;75.88
75497;BME280;64074;47.540;19.072;2022-10-19T00:58:29;101137.75;;;10.80;76.27
75497;BME280;64074;47.540;19.072;2022-10-19T01:01:51;101128.53;;;10.76;76.69
75497;BME280;64074;47.540;19.072;2022-10-19T01:05:13;101129.91;;;10.73;76.81
75497;BME280;64074;47.540;19.072;2022-10-19T01:08:33;101117.91;;;10.85;76.23
75497;BME280;64074;47.540;19.072;2022-10-19T01:12:27;101127.41;;;10.87;76.30
75497;BME280;64074;47.540;19.072;2022-10-19T01:15:44;101110.84;;;10.94;75.30
75497;BME280;64074;47.540;19.072;2022-10-19T01:22:19;101103.16;;;11.06;75.32
75497;BME280;64074;47.540;19.072;2022-10-19T01:25:54;101105.56;;;11.13;75.12
75497;BME280;64074;47.540;19.072;2022-10-19T01:42:44;101081.41;;;11.11;75.93
75497;BME280;64074;47.540;19.072;2022-10-19T01:45:59;101090.38;;;11.17;76.05
75497;BME280;64074;47.540;19.072;2022-10-19T01:49:25;101090.63;;;11.15;75.79
75497;BME280;64074;47.540;19.072;2022-10-19T01:52:39;101087.91;;;11.20;75.33
75497;BME280;64074;47.540;19.072;2022-10-19T01:55:50;101087.09;;;11.20;76.09
75497;BME280;64074;47.540;19.072;2022-10-19T01:59:03;101090.94;;;11.08;76.29
75497;BME280;64074;47.540;19.072;2022-10-19T02:02:29;101092.88;;;11.03;76.35
75497;BME280;64074;47.540;19.072;2022-10-19T02:05:33;101089.09;;;10.99;76.39
75497;BME280;64074;47.540;19.072;2022-10-19T02:08:47;101087.75;;;10.96;76.48
75497;BME280;64074;47.540;19.072;2022-10-19T02:12:17;101089.94;;;10.89;76.73
75497;BME280;64074;47.540;19.072;2022-10-19T02:15:58;101077.16;;;11.00;76.61
75497;BME280;64074;47.540;19.072;2022-10-19T02:19:24;101080.66;;;11.05;75.91
75497;BME280;64074;47.540;19.072;2022-10-19T02:22:31;101078.69;;;11.16;76.27
75497;BME280;64074;47.540;19.072;2022-10-19T02:25:38;101083.81;;;11.23;75.58
75497;BME280;64074;47.540;19.072;2022-10-19T02:28:49;101084.91;;;11.22;75.59
75497;BME280;64074;47.540;19.072;2022-10-19T02:32:02;101094.19;;;11.10;76.59
75497;BME280;64074;47.540;19.072;2022-10-19T02:35:13;101091.31;;;11.36;75.73
75497;BME280;64074;47.540;19.072;2022-10-19T02:38:47;101096.94;;;11.50;74.81
75497;BME280;64074;47.540;19.072;2022-10-19T02:42:16;101094.59;;;11.72;73.95
75497;BME280;64074;47.540;19.072;2022-10-19T02:45:37;101091.88;;;11.72;75.22
75497;BME280;64074;47.540;19.072;2022-10-19T02:49:06;101087.06;;;11.98;72.78
75497;BME280;64074;47.540;19.072;2022-10-19T02:52:22;101076.75;;;11.95;73.38
75497;BME280;64074;47.540;19.072;2022-10-19T02:55:39;101070.00;;;11.92;73.28
75497;BME280;64074;47.540;19.072;2022-10-19T02:59:01;101075.66;;;11.96;73.72
75497;BME280;64074;47.540;19.072;2022-10-19T03:02:18;101072.97;;;12.20;71.96
75497;BME280;64074;47.540;19.072;2022-10-19T03:05:35;101073.28;;;12.42;70.80
75497;BME280;64074;47.540;19.072;2022-10-19T03:09:09;101088.34;;;12.77;68.81
75497;BME280;64074;47.540;19.072;2022-10-19T03:12:36;101089.22;;;12.97;67.82
75497;BME280;64074;47.540;19.072;2022-10-19T03:15:54;101081.06;;;13.15;66.34
75497;BME280;64074;47.540;19.072;2022-10-19T03:19:04;101085.41;;;13.16;66.35
75497;BME280;64074;47.540;19.072;2022-10-19T03:22:38;101077.53;;;13.15;66.60
75497;BME280;64074;47.540;19.072;2022-10-19T03:25:47;101067.44;;;13.15;66.10
75497;BME280;64074;47.540;19.072;2022-10-19T03:29:22;101070.81;;;13.07;66.39
75497;BME280;64074;47.540;19.072;2022-10-19T03:32:43;101070.59;;;13.04;66.45
75497;BME280;64074;47.540;19.072;2022-10-19T03:39:30;101074.91;;;12.86;66.78
75497;BME280;64074;47.540;19.072;2022-10-19T03:42:52;101068.31;;;12.92;67.04
75497;BME280;64074;47.540;19.072;2022-10-19T03:46:16;101079.41;;;12.96;66.32
75497;BME280;64074;47.540;19.072;2022-10-19T03:49:39;101073.75;;;12.92;65.67
75497;BME280;64074;47.540;19.072;2022-10-19T03:52:58;101062.34;;;12.90;65.51
75497;BME280;64074;47.540;19.072;2022-10-19T03:56:27;101060.75;;;12.89;65.90
75497;BME280;64074;47.540;19.072;2022-10-19T03:59:45;101068.94;;;12.84;65.94
75497;BME280;64074;47.540;19.072;2022-10-19T04:03:18;101066.88;;;12.76;65.69
75497;BME280;64074;47.540;19.072;2022-10-19T04:06:27;101071.09;;;12.87;65.57
75497;BME280;64074;47.540;19.072;2022-10-19T04:09:32;101065.56;;;12.73;66.58
75497;BME280;64074;47.540;19.072;2022-10-19T04:16:47;101082.00;;;12.63;66.43
75497;BME280;64074;47.540;19.072;2022-10-19T04:19:57;101089.78;;;12.51;67.65
75497;BME280;64074;47.540;19.072;2022-10-19T04:23:10;101075.66;;;12.49;67.03
75497;BME280;64074;47.540;19.072;2022-10-19T04:26:33;101078.16;;;12.45;67.75
75497;BME280;64074;47.540;19.072;2022-10-19T04:29:53;101072.81;;;12.35;68.87
75497;BME280;64074;47.540;19.072;2022-10-19T04:33:17;101078.31;;;12.30;69.31
75497;BME280;64074;47.540;19.072;2022-10-19T04:36:37;101078.66;;;12.23;70.00
75497;BME280;64074;47.540;19.072;2022-10-19T04:40:01;101077.19;;;12.31;69.47
75497;BME280;64074;47.540;19.072;2022-10-19T04:43:16;101073.38;;;12.32;69.55
75497;BME280;64074;47.540;19.072;2022-10-19T04:46:20;101070.44;;;12.28;70.57
75497;BME280;64074;47.540;19.072;2022-10-19T04:49:29;101078.81;;;12.32;70.32
75497;BME280;64074;47.540;19.072;2022-10-19T04:52:38;101065.22;;;12.32;69.53
75497;BME280;64074;47.540;19.072;2022-10-19T04:55:54;101073.50;;;12.22;69.94
75497;BME280;64074;47.540;19.072;2022-10-19T04:59:21;101081.75;;;12.12;70.73
75497;BME280;64074;47.540;19.072;2022-10-19T05:02:48;101085.38;;;12.02;71.10
75497;BME280;64074;47.540;19.072;2022-10-19T05:06:09;101091.16;;;11.95;71.21
75497;BME280;64074;47.540;19.072;2022-10-19T05:09:19;101094.25;;;11.84;71.72
75497;BME280;64074;47.540;19.072;2022-10-19T05:12:49;101100.25;;;11.76;72.22
75497;BME280;64074;47.540;19.072;2022-10-19T05:16:19;101093.56;;;11.63;72.81
75497;BME280;64074;47.540;19.072;2022-10-19T05:19:41;101087.34;;;11.57;73.03
75497;BME280;64074;47.540;19.072;2022-10-19T05:23:02;101099.06;;;11.53;73.50
75497;BME280;64074;47.540;19.072;2022-10-19T05:26:25;101102.59;;;11.53;73.95
75497;BME280;64074;47.540;19.072;2022-10-19T05:29:42;101109.38;;;11.56;74.16
75497;BME280;64074;47.540;19.072;2022-10-19T05:32:45;101104.47;;;11.58;74.43
75497;BME280;64074;47.540;19.072;2022-10-19T05:35:52;101121.81;;;11.62;75.04
75497;BME280;64074;47.540;19.072;2022-10-19T05:39:07;101120.41;;;11.69;74.47
75497;BME280;64074;47.540;19.072;2022-10-19T05:42:29;101130.94;;;11.76;74.65
75497;BME280;64074;47.540;19.072;2022-10-19T05:45:39;101129.09;;;11.71;74.51
75497;BME280;64074;47.540;19.072;2022-10-19T05:48:45;101133.44;;;11.73;75.51
75497;BME280;64074;47.540;19.072;2022-10-19T05:56:42;101143.19;;;11.79;75.26
75497;BME280;64074;47.540;19.072;2022-10-19T06:32:33;101172.28;;;12.41;74.55
75497;BME280;64074;47.540;19.072;2022-10-19T06:35:43;101174.84;;;12.56;74.22
75497;BME280;64074;47.540;19.072;2022-10-19T06:38:58;101180.75;;;12.63;73.99
75497;BME280;64074;47.540;19.072;2022-10-19T06:51:33;101181.75;;;12.97;73.26
75497;BME280;64074;47.540;19.072;2022-10-19T07:04:26;101200.69;;;13.07;73.08
75497;BME280;64074;47.540;19.072;2022-10-19T07:07:29;101204.72;;;13.09;73.60
75497;BME280;64074;47.540;19.072;2022-10-19T07:11:11;101215.53;;;13.19;73.43
75497;BME280;64074;47.540;19.072;2022-10-19T07:14:24;101218.72;;;13.27;72.37
75497;BME280;64074;47.540;19.072;2022-10-19T07:26:54;101253.06;;;13.46;72.09
75497;BME280;64074;47.540;19.072;2022-10-19T07:30:04;101245.34;;;13.53;71.94
75497;BME280;64074;47.540;19.072;2022-10-19T07:33:56;101246.28;;;13.63;71.34
75497;BME280;64074;47.540;19.072;2022-10-19T07:37:09;101242.75;;;13.62;71.46
75497;BME280;64074;47.540;19.072;2022-10-19T07:40:19;101244.91;;;13.65;72.01
75497;BME280;64074;47.540;19.072;2022-10-19T07:43:45;101247.66;;;13.65;71.84
75497;BME280;64074;47.540;19.072;2022-10-19T07:47:11;101240.28;;;13.66;72.08
75497;BME280;64074;47.540;19.072;2022-10-19T07:50:30;101238.59;;;13.70;71.79
75497;BME280;64074;47.540;19.072;2022-10-19T07:53:46;101235.19;;;13.78;71.42
75497;BME280;64074;47.540;19.072;2022-10-19T07:56:56;101232.38;;;13.83;71.30
75497;BME280;64074;47.540;19.072;2022-10-19T08:00:27;101234.31;;;14.01;70.67
75497;BME280;64074;47.540;19.072;2022-10-19T08:03:43;101231.34;;;14.16;70.15
75497;BME280;64074;47.540;19.072;2022-10-19T08:07:36;101223.16;;;14.16;70.53
75497;BME280;64074;47.540;19.072;2022-10-19T08:11:12;101229.91;;;14.38;69.38
75497;BME280;64074;47.540;19.072;2022-10-19T08:14:55;101226.94;;;14.34;69.79
75497;BME280;64074;47.540;19.072;2022-10-19T08:23:08;101219.69;;;14.62;69.03
75497;BME280;64074;47.540;19.072;2022-10-19T08:26:56;101232.34;;;14.72;69.18
75497;BME280;64074;47.540;19.072;2022-10-19T08:30:12;101215.16;;;14.99;67.57
75497;BME280;64074;47.540;19.072;2022-10-19T08:33:25;101228.91;;;15.21;66.81
75497;BME280;64074;47.540;19.072;2022-10-19T08:36:55;101229.69;;;15.35;66.29
75497;BME280;64074;47.540;19.072;2022-10-19T08:40:46;101230.31;;;15.46;66.13
75497;BME280;64074;47.540;19.072;2022-10-19T08:48:33;101229.19;;;15.61;65.54
75497;BME280;64074;47.540;19.072;2022-10-19T08:57:28;101225.00;;;15.77;65.05
75497;BME280;64074;47.540;19.072;2022-10-19T09:08:36;101228.78;;;16.26;61.68
75497;BME280;64074;47.540;19.072;2022-10-19T09:15:42;101211.66;;;16.43;60.15
75497;BME280;64074;47.540;19.072;2022-10-19T09:18:52;101221.22;;;16.54;59.44
75497;BME280;64074;47.540;19.072;2022-10-19T09:25:32;101234.59;;;16.78;58.50
75497;BME280;64074;47.540;19.072;2022-10-19T09:28:53;101224.66;;;16.90;58.37
75497;BME280;64074;47.540;19.072;2022-10-19T09:32:37;101229.38;;;16.99;58.20
75497;BME280;64074;47.540;19.072;2022-10-19T09:35:52;101232.66;;;17.18;56.32
75497;BME280;64074;47.540;19.072;2022-10-19T09:39:12;101223.69;;;17.43;55.79
75497;BME280;64074;47.540;19.072;2022-10-19T09:42:28;101223.72;;;17.61;55.43
75497;BME280;64074;47.540;19.072;2022-10-19T09:45:48;101233.59;;;17.79;54.33
75497;BME280;64074;47.540;19.072;2022-10-19T09:49:05;101226.81;;;17.76;54.26
75497;BME280;64074;47.540;19.072;2022-10-19T09:52:39;101225.22;;;17.75;54.32
75497;BME280;64074;47.540;19.072;2022-10-19T09:56:52;101229.06;;;17.66;54.70
75497;BME280;64074;47.540;19.072;2022-10-19T10:00:45;101216.16;;;17.83;54.37
75497;BME280;64074;47.540;19.072;2022-10-19T10:04:13;101207.00;;;17.88;54.26
75497;BME280;64074;47.540;19.072;2022-10-19T10:16:26;101194.34;;;18.39;53.61
75497;BME280;64074;47.540;19.072;2022-10-19T10:20:21;101182.97;;;18.66;52.73
75497;BME280;64074;47.540;19.072;2022-10-19T10:28:17;101172.63;;;18.55;51.32
75497;BME280;64074;47.540;19.072;2022-10-19T10:31:43;101176.59;;;18.28;52.24
75497;BME280;64074;47.540;19.072;2022-10-19T10:35:06;101170.00;;;18.20;47.22
75497;BME280;64074;47.540;19.072;2022-10-19T10:38:52;101172.22;;;18.35;46.26
75497;BME280;64074;47.540;19.072;2022-10-19T10:50:18;101157.16;;;18.50;44.28
75497;BME280;64074;47.540;19.072;2022-10-19T10:53:39;101157.59;;;18.61;46.60
75497;BME280;64074;47.540;19.072;2022-10-19T11:22:54;101120.19;;;18.86;42.99
75497;BME280;64074;47.540;19.072;2022-10-19T11:27:04;101121.69;;;18.74;41.50
75497;BME280;64074;47.540;19.072;2022-10-19T11:30:28;101126.50;;;18.78;42.14
75497;BME280;64074;47.540;19.072;2022-10-19T11:50:00;101108.28;;;19.02;42.86
75497;BME280;64074;47.540;19.072;2022-10-19T11:53:15;101110.53;;;19.00;42.09
75497;BME280;64074;47.540;19.072;2022-10-19T11:56:52;101113.88;;;18.85;42.12
75497;BME280;64074;47.540;19.072;2022-10-19T12:16:12;101088.50;;;18.88;40.63
75497;BME280;64074;47.540;19.072;2022-10-19T12:19:38;101083.50;;;19.11;40.31
75497;BME280;64074;47.540;19.072;2022-10-19T12:26:36;101075.28;;;19.23;38.98
75497;BME280;64074;47.540;19.072;2022-10-19T12:29:46;101072.19;;;19.04;39.14
75497;BME280;64074;47.540;19.072;2022-10-19T12:46:46;101069.25;;;18.50;41.80
75497;BME280;64074;47.540;19.072;2022-10-19T12:49:58;101057.41;;;18.29;40.98
75497;BME280;64074;47.540;19.072;2022-10-19T12:53:06;101052.56;;;18.26;40.97
75497;BME280;64074;47.540;19.072;2022-10-19T12:56:20;101062.31;;;18.14;41.48
75497;BME280;64074;47.540;19.072;2022-10-19T12:59:36;101056.69;;;18.11;41.06
75497;BME280;64074;47.540;19.072;2022-10-19T13:06:46;101048.13;;;18.12;40.02
75497;BME280;64074;47.540;19.072;2022-10-19T13:10:30;101047.00;;;18.13;40.77
75497;BME280;64074;47.540;19.072;2022-10-19T13:21:07;101038.63;;;18.10;40.95
75497;BME280;64074;47.540;19.072;2022-10-19T13:28:51;101056.03;;;18.05;39.80
75497;BME280;64074;47.540;19.072;2022-10-19T13:32:38;101054.44;;;18.04;37.82
75497;BME280;64074;47.540;19.072;2022-10-19T13:36:06;101063.03;;;17.94;37.46
75497;BME280;64074;47.540;19.072;2022-10-19T13:39:28;101057.72;;;17.89;39.42
75497;BME280;64074;47.540;19.072;2022-10-19T13:42:38;101055.97;;;17.85;39.61
75497;BME280;64074;47.540;19.072;2022-10-19T13:57:15;101059.53;;;17.68;42.40
75497;BME280;64074;47.540;19.072;2022-10-19T14:00:30;101057.88;;;17.67;41.07
75497;BME280;64074;47.540;19.072;2022-10-19T14:07:25;101035.63;;;17.60;42.28
75497;BME280;64074;47.540;19.072;2022-10-19T14:10:41;101054.19;;;17.45;42.94
75497;BME280;64074;47.540;19.072;2022-10-19T14:14:26;101054.03;;;17.42;43.08
75497;BME280;64074;47.540;19.072;2022-10-19T14:17:40;101063.72;;;17.39;43.33
75497;BME280;64074;47.540;19.072;2022-10-19T14:21:04;101055.81;;;17.29;43.99
75497;BME280;64074;47.540;19.072;2022-10-19T14:28:05;101057.25;;;17.09;44.64
75497;BME280;64074;47.540;19.072;2022-10-19T14:31:20;101058.69;;;16.98;44.79
75497;BME280;64074;47.540;19.072;2022-10-19T14:34:30;101056.59;;;16.95;44.52
75497;BME280;64074;47.540;19.072;2022-10-19T14:37:43;101044.84;;;16.95;44.97
75497;BME280;64074;47.540;19.072;2022-10-19T14:40:53;101050.97;;;16.91;44.76
75497;BME280;64074;47.540;19.072;2022-10-19T14:44:41;101044.31;;;16.84;43.84
75497;BME280;64074;47.540;19.072;2022-10-19T14:48:14;101060.75;;;16.84;42.87
75497;BME280;64074;47.540;19.072;2022-10-19T14:54:44;101053.84;;;16.78;43.07
75497;BME280;64074;47.540;19.072;2022-10-19T14:57:53;101039.00;;;16.70;42.28
75497;BME280;64074;47.540;19.072;2022-10-19T15:01:04;101045.84;;;16.59;41.77
75497;BME280;64074;47.540;19.072;2022-10-19T15:04:36;101041.97;;;16.51;42.14
75497;BME280;64074;47.540;19.072;2022-10-19T15:07:51;101053.41;;;16.45;42.77
75497;BME280;64074;47.540;19.072;2022-10-19T15:11:26;101057.53;;;16.34;43.88
75497;BME280;64074;47.540;19.072;2022-10-19T15:14:36;101057.19;;;16.26;43.30
75497;BME280;64074;47.540;19.072;2022-10-19T15:21:18;101049.41;;;16.11;44.21
75497;BME280;64074;47.540;19.072;2022-10-19T15:28:31;101062.00;;;15.90;44.53
75497;BME280;64074;47.540;19.072;2022-10-19T15:31:39;101064.84;;;15.85;44.67
75497;BME280;64074;47.540;19.072;2022-10-19T15:34:48;101056.78;;;15.80;44.71
75497;BME280;64074;47.540;19.072;2022-10-19T15:38:25;101051.75;;;15.73;44.88
75497;BME280;64074;47.540;19.072;2022-10-19T15:41:37;101054.94;;;15.66;45.11
75497;BME280;64074;47.540;19.072;2022-10-19T15:44:59;101050.91;;;15.64;44.74
75497;BME280;64074;47.540;19.072;2022-10-19T15:51:49;101084.84;;;15.49;46.04
75497;BME280;64074;47.540;19.072;2022-10-19T15:55:02;101081.44;;;15.44;46.47
75497;BME280;64074;47.540;19.072;2022-10-19T15:58:26;101078.63;;;15.35;46.71
75497;BME280;64074;47.540;19.072;2022-10-19T16:01:46;101087.25;;;15.28;47.10
75497;BME280;64074;47.540;19.072;2022-10-19T16:05:09;101077.06;;;15.20;47.17
75497;BME280;64074;47.540;19.072;2022-10-19T16:08:36;101081.13;;;15.09;47.10
75497;BME280;64074;47.540;19.072;2022-10-19T16:11:49;101093.78;;;15.05;47.12
75497;BME280;64074;47.540;19.072;2022-10-19T16:15:18;101097.75;;;14.99;46.99
75497;BME280;64074;47.540;19.072;2022-10-19T16:18:38;101104.25;;;14.89;46.93
75497;BME280;64074;47.540;19.072;2022-10-19T16:21:58;101112.94;;;14.77;47.47
75497;BME280;64074;47.540;19.072;2022-10-19T16:25:21;101129.22;;;14.69;47.68
75497;BME280;64074;47.540;19.072;2022-10-19T16:28:42;101129.31;;;14.64;47.36
75497;BME280;64074;47.540;19.072;2022-10-19T16:31:46;101135.34;;;14.61;47.22
75497;BME280;64074;47.540;19.072;2022-10-19T16:38:42;101115.84;;;14.54;47.65
75497;BME280;64074;47.540;19.072;2022-10-19T16:41:50;101107.06;;;14.43;47.78
75497;BME280;64074;47.540;19.072;2022-10-19T16:45:00;101124.38;;;14.33;48.81
75497;BME280;64074;47.540;19.072;2022-10-19T16:48:13;101133.88;;;14.22;48.94
75497;BME280;64074;47.540;19.072;2022-10-19T16:51:37;101146.00;;;14.16;49.50
75497;BME280;64074;47.540;19.072;2022-10-19T16:54:47;101156.53;;;14.04;49.87
75497;BME280;64074;47.540;19.072;2022-10-19T16:58:08;101160.69;;;14.01;49.81
75497;BME280;64074;47.540;19.072;2022-10-19T17:01:17;101163.88;;;13.90;50.28
75497;BME280;64074;47.540;19.072;2022-10-19T17:04:27;101161.66;;;13.92;50.29
75497;BME280;64074;47.540;19.072;2022-10-19T17:07:31;101165.00;;;13.89;50.45
75497;BME280;64074;47.540;19.072;2022-10-19T17:10:41;101175.66;;;13.85;50.37
75497;BME280;64074;47.540;19.072;2022-10-19T17:13:51;101177.16;;;13.77;50.68
75497;BME280;64074;47.540;19.072;2022-10-19T17:16:55;101176.72;;;13.70;51.24
75497;BME280;64074;47.540;19.072;2022-10-19T17:20:05;101173.31;;;13.60;51.13
75497;BME280;64074;47.540;19.072;2022-10-19T17:23:34;101170.00;;;13.63;50.77
75497;BME280;64074;47.540;19.072;2022-10-19T17:27:03;101175.22;;;13.59;51.18
75497;BME280;64074;47.540;19.072;2022-10-19T17:30:26;101158.75;;;13.50;51.58
75497;BME280;64074;47.540;19.072;2022-10-19T17:33:35;101180.91;;;13.44;52.03
75497;BME280;64074;47.540;19.072;2022-10-19T17:36:41;101181.78;;;13.39;52.82
75497;BME280;64074;47.540;19.072;2022-10-19T17:39:55;101189.19;;;13.34;52.38
75497;BME280;64074;47.540;19.072;2022-10-19T17:43:04;101186.03;;;13.27;52.42
75497;BME280;64074;47.540;19.072;2022-10-19T17:46:38;101192.88;;;13.24;52.26
75497;BME280;64074;47.540;19.072;2022-10-19T17:49:49;101193.31;;;13.07;53.47
75497;BME280;64074;47.540;19.072;2022-10-19T17:53:01;101208.09;;;13.01;53.53
75497;BME280;64074;47.540;19.072;2022-10-19T17:56:31;101209.25;;;12.95;53.66
75497;BME280;64074;47.540;19.072;2022-10-19T17:59:46;101197.06;;;12.92;54.44
75497;BME280;64074;47.540;19.072;2022-10-19T18:03:03;101207.44;;;12.85;54.43
75497;BME280;64074;47.540;19.072;2022-10-19T18:06:41;101207.00;;;12.78;54.77
75497;BME280;64074;47.540;19.072;2022-10-19T18:09:51;101208.66;;;12.74;55.07
75497;BME280;64074;47.540;19.072;2022-10-19T18:13:13;101185.00;;;12.75;54.92
75497;BME280;64074;47.540;19.072;2022-10-19T18:16:32;101195.94;;;12.70;55.70
75497;BME280;64074;47.540;19.072;2022-10-19T18:19:48;101211.78;;;12.62;55.82
75497;BME280;64074;47.540;19.072;2022-10-19T18:22:59;101232.78;;;12.57;56.45
75497;BME280;64074;47.540;19.072;2022-10-19T18:26:13;101234.50;;;12.48;56.75
75497;BME280;64074;47.540;19.072;2022-10-19T18:29:26;101249.56;;;12.35;57.10
75497;BME280;64074;47.540;19.072;2022-10-19T18:32:40;101242.59;;;12.24;57.22
75497;BME280;64074;47.540;19.072;2022-10-19T18:35:56;101252.41;;;12.20;57.16
75497;BME280;64074;47.540;19.072;2022-10-19T18:39:09;101244.78;;;12.22;57.34
75497;BME280;64074;47.540;19.072;2022-10-19T18:42:14;101242.34;;;12.20;58.08
75497;BME280;64074;47.540;19.072;2022-10-19T18:45:24;101258.66;;;12.20;57.24
75497;BME280;64074;47.540;19.072;2022-10-19T18:48:37;101268.50;;;12.11;58.30
75497;BME280;64074;47.540;19.072;2022-10-19T18:51:55;101254.66;;;12.08;58.79
75497;BME280;64074;47.540;19.072;2022-10-19T18:55:30;101263.44;;;11.99;58.79
75497;BME280;64074;47.540;19.072;2022-10-19T18:58:47;101281.69;;;11.94;59.95
75497;BME280;64074;47.540;19.072;2022-10-19T19:01:52;101275.75;;;11.82;59.48
75497;BME280;64074;47.540;19.072;2022-10-19T19:05:05;101277.66;;;11.76;59.41
75497;BME280;64074;47.540;19.072;2022-10-19T19:08:15;101288.56;;;11.71;60.13
75497;BME280;64074;47.540;19.072;2022-10-19T19:11:25;101288.81;;;11.75;60.78
75497;BME280;64074;47.540;19.072;2022-10-19T19:14:33;101292.66;;;11.68;60.30
75497;BME280;64074;47.540;19.072;2022-10-19T19:17:40;101282.31;;;11.70;59.49
75497;BME280;64074;47.540;19.072;2022-10-19T19:20:47;101273.84;;;11.77;60.12
75497;BME280;64074;47.540;19.072;2022-10-19T19:23:59;101247.78;;;11.76;59.63
75497;BME280;64074;47.540;19.072;2022-10-19T19:27:31;101270.00;;;11.88;57.97
75497;BME280;64074;47.540;19.072;2022-10-19T19:30:58;101279.31;;;11.72;58.56
75497;BME280;64074;47.540;19.072;2022-10-19T19:34:13;101284.50;;;11.63;58.94
75497;BME280;64074;47.540;19.072;2022-10-19T19:37:37;101276.94;;;11.55;58.47
75497;BME280;64074;47.540;19.072;2022-10-19T19:40:52;101278.88;;;11.50;58.16
75497;BME280;64074;47.540;19.072;2022-10-19T19:43:56;101285.41;;;11.49;58.69
75497;BME280;64074;47.540;19.072;2022-10-19T19:47:08;101306.63;;;11.42;59.09
75497;BME280;64074;47.540;19.072;2022-10-19T19:50:20;101316.94;;;11.34;59.17
75497;BME280;64074;47.540;19.072;2022-10-19T19:53:39;101318.03;;;11.28;58.71
75497;BME280;64074;47.540;19.072;2022-10-19T19:57:09;101307.72;;;11.30;57.98
75497;BME280;64074;47.540;19.072;2022-10-19T20:00:28;101312.88;;;11.32;57.43
75497;BME280;64074;47.540;19.072;2022-10-19T20:03:45;101313.69;;;11.27;57.97
75497;BME280;64074;47.540;19.072;2022-10-19T20:06:52;101318.91;;;11.19;57.57
75497;BME280;64074;47.540;19.072;2022-10-19T20:10:00;101317.00;;;11.09;57.94
75497;BME280;64074;47.540;19.072;2022-10-19T20:13:13;101314.56;;;11.02;57.80
75497;BME280;64074;47.540;19.072;2022-10-19T20:16:29;101320.56;;;10.99;58.33
75497;BME280;64074;47.540;19.072;2022-10-19T20:19:49;101327.34;;;10.97;57.86
75497;BME280;64074;47.540;19.072;2022-10-19T20:23:10;101332.47;;;10.88;57.53
75497;BME280;64074;47.540;19.072;2022-10-19T20:26:28;101341.72;;;10.87;58.12
75497;BME280;64074;47.540;19.072;2022-10-19T20:29:33;101349.59;;;10.78;58.16
75497;BME280;64074;47.540;19.072;2022-10-19T20:32:40;101350.13;;;10.75;57.90
75497;BME280;64074;47.540;19.072;2022-10-19T20:35:49;101348.50;;;10.74;58.04
75497;BME280;64074;47.540;19.072;2022-10-19T20:38:57;101354.22;;;10.73;57.61
75497;BME280;64074;47.540;19.072;2022-10-19T20:42:01;101358.00;;;10.77;57.65
75497;BME280;64074;47.540;19.072;2022-10-19T20:45:05;101359.09;;;10.71;58.14
75497;BME280;64074;47.540;19.072;2022-10-19T20:48:15;101349.88;;;10.67;57.48
75497;BME280;64074;47.540;19.072;2022-10-19T20:51:44;101359.63;;;10.58;58.21
75497;BME280;64074;47.540;19.072;2022-10-19T20:55:13;101360.44;;;10.48;58.75
75497;BME280;64074;47.540;19.072;2022-10-19T20:58:32;101360.41;;;10.38;59.35
75497;BME280;64074;47.540;19.072;2022-10-19T21:01:48;101353.88;;;10.29;59.14
75497;BME280;64074;47.540;19.072;2022-10-19T21:05:09;101360.94;;;10.25;59.36
75497;BME280;64074;47.540;19.072;2022-10-19T21:08:29;101372.31;;;10.27;58.81
75497;BME280;64074;47.540;19.072;2022-10-19T21:11:52;101373.41;;;10.26;59.27
75497;BME280;64074;47.540;19.072;2022-10-19T21:15:12;101377.94;;;10.15;59.73
75497;BME280;64074;47.540;19.072;2022-10-19T21:18:28;101371.44;;;10.16;59.32
75497;BME280;64074;47.540;19.072;2022-10-19T21:21:41;101366.28;;;10.14;59.67
75497;BME280;64074;47.540;19.072;2022-10-19T21:24:51;101362.22;;;10.12;59.21
75497;BME280;64074;47.540;19.072;2022-10-19T21:28:00;101369.56;;;10.16;59.45
75497;BME280;64074;47.540;19.072;2022-10-19T21:31:28;101377.91;;;10.10;59.88
75497;BME280;64074;47.540;19.072;2022-10-19T21:34:57;101376.00;;;10.05;59.93
75497;BME280;64074;47.540;19.072;2022-10-19T21:38:14;101373.84;;;10.02;59.54